John H. — WAC6768 — position and weather

sailwx.info

Track history (hours):
 
Tides and Currents Weather Stations Pressure Air Temp Water Temp Dewpoint Dewpoint Depression Visibility Wind Speed Wind Dir Waves Ship Positions

John H.

Owner: CROSS SOUND FERRY SERVICE INC, NEW LOUDON, CT. More information available from US FCC via Universal Licensing System and Coast Guard Vessel Documentation Center.

Last reported at 2015-Mar-27 15:33 UTC. Time now 2015-Mar-27 15:46 UTC.
Position N 41°14' W 072°09'.

Length 70 m.

Type: Passenger vessel. MMSI: 366934890.

Date/timePositionNaut miles runAvg speedWind from/ knotsBaromVisibWave heightAir tempDewpointWater temp
2015-Mar-27 15:33N 41°14' W 072°09'6 6.2
2015-Mar-27 14:33N 41°09' W 072°14'8 8.0
2015-Mar-27 13:33N 41°16' W 072°08'6 6.1
2015-Mar-27 12:33N 41°21' W 072°06'8 8.0
2015-Mar-27 11:34N 41°14' W 072°09'6 6.1
2015-Mar-27 10:34N 41°09' W 072°14'0 0.0
2015-Mar-27 00:34N 41°09' W 072°14'8 8.4
2015-Mar-26 23:33N 41°16' W 072°07'6 5.7
2015-Mar-26 22:33N 41°21' W 072°06'8 8.2
2015-Mar-26 21:33N 41°14' W 072°10'6 5.8
2015-Mar-26 20:34N 41°09' W 072°14'8 8.2
2015-Mar-26 19:33N 41°16' W 072°08'6 5.9
2015-Mar-26 18:33N 41°21' W 072°06'9 9.0
2015-Mar-26 17:33N 41°13' W 072°10'5 4.9
2015-Mar-26 16:33N 41°09' W 072°14'8 7.6
2015-Mar-26 15:33N 41°15' W 072°08'6 6.4
2015-Mar-26 14:34N 41°21' W 072°06'8 7.9
2015-Mar-26 13:33N 41°14' W 072°09'6 6.2
2015-Mar-26 12:34N 41°09' W 072°14'8 8.4
2015-Mar-26 11:33N 41°16' W 072°08'6 5.7
2015-Mar-26 10:33N 41°21' W 072°06'0 0.0
2015-Mar-26 00:21N 41°21' W 072°06'810.0
2015-Mar-25 23:34N 41°14' W 072°09'6 6.2
2015-Mar-25 22:33N 41°09' W 072°14'8 8.1
2015-Mar-25 21:33N 41°16' W 072°08'6 6.0
2015-Mar-25 20:33N 41°21' W 072°06'8 8.2
2015-Mar-25 19:33N 41°14' W 072°10'6 5.8
2015-Mar-25 18:33N 41°09' W 072°14'8 8.1
2015-Mar-25 17:34N 41°16' W 072°08'6 5.9
2015-Mar-25 16:34N 41°21' W 072°06'9 8.8
2015-Mar-25 15:33N 41°13' W 072°10'5 5.2
2015-Mar-25 14:33N 41°09' W 072°14'9 8.7
2015-Mar-25 13:34N 41°16' W 072°07'5 5.4
2015-Mar-25 12:34N 41°21' W 072°06'9 8.5
2015-Mar-25 11:33N 41°13' W 072°10'5 5.5
2015-Mar-25 10:33N 41°09' W 072°14'0 0.0
2015-Mar-25 00:33N 41°09' W 072°14'8 8.5
2015-Mar-24 23:33N 41°16' W 072°07'6 5.6
2015-Mar-24 22:33N 41°21' W 072°06'9 9.0
2015-Mar-24 21:34N 41°13' W 072°10'5 4.9
2015-Mar-24 20:33N 41°09' W 072°14'9 8.8
2015-Mar-24 19:33N 41°16' W 072°07'5 5.3
2015-Mar-24 18:33N 41°21' W 072°06'9 8.9
2015-Mar-24 17:33N 41°13' W 072°10'5 5.1
2015-Mar-24 16:33N 41°09' W 072°14'9 8.7
2015-Mar-24 15:34N 41°16' W 072°07'5 5.4
2015-Mar-24 14:33N 41°21' W 072°06'10 9.9
2015-Mar-24 13:34N 41°12' W 072°11'4 4.0
2015-Mar-24 12:33N 41°09' W 072°14'8 8.1
2015-Mar-24 11:33N 41°16' W 072°08'6 5.9
2015-Mar-24 10:33N 41°21' W 072°06'0 0.0
2015-Mar-24 00:25N 41°21' W 072°06'8 9.5
2015-Mar-23 23:33N 41°14' W 072°09'6 6.1
2015-Mar-23 22:33N 41°09' W 072°14'8 8.1
2015-Mar-23 21:34N 41°15' W 072°08'6 6.1
2015-Mar-23 20:33N 41°21' W 072°06'8 8.3
2015-Mar-23 19:33N 41°14' W 072°09'6 5.7
2015-Mar-23 18:34N 41°09' W 072°14'8 8.1
2015-Mar-23 17:33N 41°16' W 072°08'6 6.0
2015-Mar-23 16:33N 41°21' W 072°06'9 8.8
2015-Mar-23 15:33N 41°13' W 072°10'5 5.1
2015-Mar-23 14:33N 41°09' W 072°14'9 8.9
2015-Mar-23 13:34N 41°16' W 072°07'5 5.3
2015-Mar-23 12:34N 41°21' W 072°06'8 8.3
2015-Mar-23 11:33N 41°13' W 072°08'6 6.1
2015-Mar-23 10:34N 41°09' W 072°14'0 0.0
2015-Mar-23 01:29N 41°09' W 072°14'8 8.4
2015-Mar-23 00:33N 41°15' W 072°08'6 6.3
2015-Mar-22 23:34N 41°21' W 072°06'8 7.9
2015-Mar-22 22:33N 41°14' W 072°09'6 6.3
2015-Mar-22 21:34N 41°09' W 072°14'9 8.8
2015-Mar-22 20:33N 41°16' W 072°07'5 5.4
2015-Mar-22 19:33N 41°21' W 072°06'9 8.7
2015-Mar-22 18:33N 41°13' W 072°10'5 5.3
2015-Mar-22 17:33N 41°09' W 072°14'8 7.8
2015-Mar-22 16:33N 41°15' W 072°08'6 6.3
2015-Mar-22 15:34N 41°21' W 072°06'9 9.1
2015-Mar-22 14:34N 41°13' W 072°11'5 4.8
2015-Mar-22 13:33N 41°09' W 072°14'8 8.2
2015-Mar-22 12:34N 41°16' W 072°08'6 5.9
2015-Mar-22 11:33N 41°21' W 072°06'0 0.0
2015-Mar-22 00:23N 41°21' W 072°06'8 9.8
2015-Mar-21 23:34N 41°14' W 072°09'6 5.9
2015-Mar-21 22:33N 41°09' W 072°14'8 7.8
2015-Mar-21 21:33N 41°15' W 072°08'6 6.2
2015-Mar-21 20:33N 41°21' W 072°06'9 8.7
2015-Mar-21 19:33N 41°13' W 072°10'5 5.2
2015-Mar-21 18:33N 41°09' W 072°14'9 8.8
2015-Mar-21 17:33N 41°16' W 072°07'5 5.4
2015-Mar-21 16:33N 41°21' W 072°06'9 9.1
2015-Mar-21 15:33N 41°13' W 072°11'5 4.8
2015-Mar-21 14:33N 41°09' W 072°14'8 7.7
2015-Mar-21 13:33N 41°15' W 072°08'6 6.3
2015-Mar-21 12:34N 41°21' W 072°06'9 9.4
2015-Mar-21 11:34N 41°13' W 072°10'5 4.5
2015-Mar-21 10:34N 41°09' W 072°14'0 0.0
2015-Mar-21 00:33N 41°09' W 072°14'9 8.8
2015-Mar-20 23:34N 41°16' W 072°07'5 5.2
2015-Mar-20 22:33N 41°21' W 072°06'1110.8
2015-Mar-20 21:33N 41°12' W 072°12'3 3.1
2015-Mar-20 20:33N 41°09' W 072°14'9 9.2
2015-Mar-20 19:33N 41°16' W 072°07'5 5.0
2015-Mar-20 18:33N 41°21' W 072°06'9 8.5
2015-Mar-20 17:34N 41°14' W 072°10'5 5.3
2015-Mar-20 16:33N 41°09' W 072°14'8 7.8
2015-Mar-20 15:33N 41°15' W 072°08'6 6.2
2015-Mar-20 14:33N 41°21' W 072°06'9 8.5
2015-Mar-20 13:33N 41°14' W 072°10'5 5.4
2015-Mar-20 12:33N 41°09' W 072°14'8 7.9
2015-Mar-20 11:33N 41°16' W 072°08'6 6.1
2015-Mar-20 10:33N 41°21' W 072°06'0 0.0
2015-Mar-20 00:24N 41°21' W 072°06'810.0
2015-Mar-19 23:33N 41°14' W 072°10'6 5.5
2015-Mar-19 22:33N 41°09' W 072°14'9 8.5
2015-Mar-19 21:34N 41°16' W 072°07'6 5.6
2015-Mar-19 20:33N 41°21' W 072°06'10 9.9
2015-Mar-19 19:33N 41°12' W 072°11'4 4.0
2015-Mar-19 18:33N 41°09' W 072°14'9 8.6
2015-Mar-19 17:33N 41°16' W 072°07'6 5.6
2015-Mar-19 16:33N 41°21' W 072°06'8 8.2
2015-Mar-19 15:33N 41°14' W 072°09'6 5.9
2015-Mar-19 14:33N 41°09' W 072°14'9 8.7
2015-Mar-19 13:33N 41°16' W 072°07'5 5.4
2015-Mar-19 12:33N 41°21' W 072°06'9 8.8
2015-Mar-19 11:33N 41°13' W 072°10'5 5.2
2015-Mar-19 10:33N 41°09' W 072°14'0 0.0
2015-Mar-19 00:31N 41°09' W 072°14'9 8.9
2015-Mar-18 23:33N 41°16' W 072°07'6 5.6
2015-Mar-18 22:33N 41°21' W 072°06'9 8.7
2015-Mar-18 21:33N 41°13' W 072°10'5 5.3
2015-Mar-18 20:34N 41°09' W 072°14'8 7.7
2015-Mar-18 19:33N 41°15' W 072°08'6 6.5
2015-Mar-18 18:33N 41°21' W 072°06'9 9.0
2015-Mar-18 17:33N 41°13' W 072°10'5 5.1
2015-Mar-18 16:33N 41°09' W 072°14'8 7.9
2015-Mar-18 15:33N 41°15' W 072°08'6 6.3
2015-Mar-18 14:34N 41°21' W 072°06'10 9.7
2015-Mar-18 13:33N 41°13' W 072°11'4 4.1
2015-Mar-18 12:33N 41°09' W 072°14'8 8.5
2015-Mar-18 11:33N 41°16' W 072°07'6 5.6
2015-Mar-18 10:33N 41°21' W 072°06'0 0.0
2015-Mar-18 00:34N 41°21' W 072°06'9 9.0
2015-Mar-17 23:33N 41°13' W 072°10'5 4.0
2015-Mar-17 22:18N 41°09' W 072°14'912.0
2015-Mar-17 21:33N 41°16' W 072°07'5 5.2
2015-Mar-17 20:34N 41°21' W 072°06'9 8.9
2015-Mar-17 19:33N 41°13' W 072°10'5 5.2
2015-Mar-17 18:33N 41°09' W 072°14'8 8.0
2015-Mar-17 17:34N 41°15' W 072°08'6 6.1
2015-Mar-17 16:33N 41°21' W 072°06'  
Track history (hours):
 
Tides and Currents Weather Stations Pressure Air Temp Water Temp Dewpoint Dewpoint Depression Visibility Wind Speed Wind Dir Waves Ship Positions

John H.

Owner: CROSS SOUND FERRY SERVICE INC, NEW LOUDON, CT. More information available from US FCC via Universal Licensing System and Coast Guard Vessel Documentation Center.

Last reported at 2015-Mar-27 15:33 UTC. Time now 2015-Mar-27 15:46 UTC.
Position N 41°14' W 072°09'.

Length 70 m.

Type: Passenger vessel. MMSI: 366934890.

Date/timePositionNaut miles runAvg speedWind from/ knotsBaromVisibWave heightAir tempDewpointWater temp
2015-Mar-27 15:33N 41°14' W 072°09'6 6.2
2015-Mar-27 14:33N 41°09' W 072°14'8 8.0
2015-Mar-27 13:33N 41°16' W 072°08'6 6.1
2015-Mar-27 12:33N 41°21' W 072°06'8 8.0
2015-Mar-27 11:34N 41°14' W 072°09'6 6.1
2015-Mar-27 10:34N 41°09' W 072°14'0 0.0
2015-Mar-27 00:34N 41°09' W 072°14'8 8.4
2015-Mar-26 23:33N 41°16' W 072°07'6 5.7
2015-Mar-26 22:33N 41°21' W 072°06'8 8.2
2015-Mar-26 21:33N 41°14' W 072°10'6 5.8
2015-Mar-26 20:34N 41°09' W 072°14'8 8.2
2015-Mar-26 19:33N 41°16' W 072°08'6 5.9
2015-Mar-26 18:33N 41°21' W 072°06'9 9.0
2015-Mar-26 17:33N 41°13' W 072°10'5 4.9
2015-Mar-26 16:33N 41°09' W 072°14'8 7.6
2015-Mar-26 15:33N 41°15' W 072°08'6 6.4
2015-Mar-26 14:34N 41°21' W 072°06'8 7.9
2015-Mar-26 13:33N 41°14' W 072°09'6 6.2
2015-Mar-26 12:34N 41°09' W 072°14'8 8.4
2015-Mar-26 11:33N 41°16' W 072°08'6 5.7
2015-Mar-26 10:33N 41°21' W 072°06'0 0.0
2015-Mar-26 00:21N 41°21' W 072°06'810.0
2015-Mar-25 23:34N 41°14' W 072°09'6 6.2
2015-Mar-25 22:33N 41°09' W 072°14'8 8.1
2015-Mar-25 21:33N 41°16' W 072°08'6 6.0
2015-Mar-25 20:33N 41°21' W 072°06'8 8.2
2015-Mar-25 19:33N 41°14' W 072°10'6 5.8
2015-Mar-25 18:33N 41°09' W 072°14'8 8.1
2015-Mar-25 17:34N 41°16' W 072°08'6 5.9
2015-Mar-25 16:34N 41°21' W 072°06'9 8.8
2015-Mar-25 15:33N 41°13' W 072°10'5 5.2
2015-Mar-25 14:33N 41°09' W 072°14'9 8.7
2015-Mar-25 13:34N 41°16' W 072°07'5 5.4
2015-Mar-25 12:34N 41°21' W 072°06'9 8.5
2015-Mar-25 11:33N 41°13' W 072°10'5 5.5
2015-Mar-25 10:33N 41°09' W 072°14'0 0.0
2015-Mar-25 00:33N 41°09' W 072°14'8 8.5
2015-Mar-24 23:33N 41°16' W 072°07'6 5.6
2015-Mar-24 22:33N 41°21' W 072°06'9 9.0
2015-Mar-24 21:34N 41°13' W 072°10'5 4.9
2015-Mar-24 20:33N 41°09' W 072°14'9 8.8
2015-Mar-24 19:33N 41°16' W 072°07'5 5.3
2015-Mar-24 18:33N 41°21' W 072°06'9 8.9
2015-Mar-24 17:33N 41°13' W 072°10'5 5.1
2015-Mar-24 16:33N 41°09' W 072°14'9 8.7
2015-Mar-24 15:34N 41°16' W 072°07'5 5.4
2015-Mar-24 14:33N 41°21' W 072°06'10 9.9
2015-Mar-24 13:34N 41°12' W 072°11'4 4.0
2015-Mar-24 12:33N 41°09' W 072°14'8 8.1
2015-Mar-24 11:33N 41°16' W 072°08'6 5.9
2015-Mar-24 10:33N 41°21' W 072°06'0 0.0
2015-Mar-24 00:25N 41°21' W 072°06'8 9.5
2015-Mar-23 23:33N 41°14' W 072°09'6 6.1
2015-Mar-23 22:33N 41°09' W 072°14'8 8.1
2015-Mar-23 21:34N 41°15' W 072°08'6 6.1
2015-Mar-23 20:33N 41°21' W 072°06'8 8.3
2015-Mar-23 19:33N 41°14' W 072°09'6 5.7
2015-Mar-23 18:34N 41°09' W 072°14'8 8.1
2015-Mar-23 17:33N 41°16' W 072°08'6 6.0
2015-Mar-23 16:33N 41°21' W 072°06'9 8.8
2015-Mar-23 15:33N 41°13' W 072°10'5 5.1
2015-Mar-23 14:33N 41°09' W 072°14'9 8.9
2015-Mar-23 13:34N 41°16' W 072°07'5 5.3
2015-Mar-23 12:34N 41°21' W 072°06'8 8.3
2015-Mar-23 11:33N 41°13' W 072°08'6 6.1
2015-Mar-23 10:34N 41°09' W 072°14'0 0.0
2015-Mar-23 01:29N 41°09' W 072°14'8 8.4
2015-Mar-23 00:33N 41°15' W 072°08'6 6.3
2015-Mar-22 23:34N 41°21' W 072°06'8 7.9
2015-Mar-22 22:33N 41°14' W 072°09'6 6.3
2015-Mar-22 21:34N 41°09' W 072°14'9 8.8
2015-Mar-22 20:33N 41°16' W 072°07'5 5.4
2015-Mar-22 19:33N 41°21' W 072°06'9 8.7
2015-Mar-22 18:33N 41°13' W 072°10'5 5.3
2015-Mar-22 17:33N 41°09' W 072°14'8 7.8
2015-Mar-22 16:33N 41°15' W 072°08'6 6.3
2015-Mar-22 15:34N 41°21' W 072°06'9 9.1
2015-Mar-22 14:34N 41°13' W 072°11'5 4.8
2015-Mar-22 13:33N 41°09' W 072°14'8 8.2
2015-Mar-22 12:34N 41°16' W 072°08'6 5.9
2015-Mar-22 11:33N 41°21' W 072°06'0 0.0
2015-Mar-22 00:23N 41°21' W 072°06'8 9.8
2015-Mar-21 23:34N 41°14' W 072°09'6 5.9
2015-Mar-21 22:33N 41°09' W 072°14'8 7.8
2015-Mar-21 21:33N 41°15' W 072°08'6 6.2
2015-Mar-21 20:33N 41°21' W 072°06'9 8.7
2015-Mar-21 19:33N 41°13' W 072°10'5 5.2
2015-Mar-21 18:33N 41°09' W 072°14'9 8.8
2015-Mar-21 17:33N 41°16' W 072°07'5 5.4
2015-Mar-21 16:33N 41°21' W 072°06'9 9.1
2015-Mar-21 15:33N 41°13' W 072°11'5 4.8
2015-Mar-21 14:33N 41°09' W 072°14'8 7.7
2015-Mar-21 13:33N 41°15' W 072°08'6 6.3
2015-Mar-21 12:34N 41°21' W 072°06'9 9.4
2015-Mar-21 11:34N 41°13' W 072°10'5 4.5
2015-Mar-21 10:34N 41°09' W 072°14'0 0.0
2015-Mar-21 00:33N 41°09' W 072°14'9 8.8
2015-Mar-20 23:34N 41°16' W 072°07'5 5.2
2015-Mar-20 22:33N 41°21' W 072°06'1110.8
2015-Mar-20 21:33N 41°12' W 072°12'3 3.1
2015-Mar-20 20:33N 41°09' W 072°14'9 9.2
2015-Mar-20 19:33N 41°16' W 072°07'5 5.0
2015-Mar-20 18:33N 41°21' W 072°06'9 8.5
2015-Mar-20 17:34N 41°14' W 072°10'5 5.3
2015-Mar-20 16:33N 41°09' W 072°14'8 7.8
2015-Mar-20 15:33N 41°15' W 072°08'6 6.2
2015-Mar-20 14:33N 41°21' W 072°06'9 8.5
2015-Mar-20 13:33N 41°14' W 072°10'5 5.4
2015-Mar-20 12:33N 41°09' W 072°14'8 7.9
2015-Mar-20 11:33N 41°16' W 072°08'6 6.1
2015-Mar-20 10:33N 41°21' W 072°06'0 0.0
2015-Mar-20 00:24N 41°21' W 072°06'810.0
2015-Mar-19 23:33N 41°14' W 072°10'6 5.5
2015-Mar-19 22:33N 41°09' W 072°14'9 8.5
2015-Mar-19 21:34N 41°16' W 072°07'6 5.6
2015-Mar-19 20:33N 41°21' W 072°06'10 9.9
2015-Mar-19 19:33N 41°12' W 072°11'4 4.0
2015-Mar-19 18:33N 41°09' W 072°14'9 8.6
2015-Mar-19 17:33N 41°16' W 072°07'6 5.6
2015-Mar-19 16:33N 41°21' W 072°06'8 8.2
2015-Mar-19 15:33N 41°14' W 072°09'6 5.9
2015-Mar-19 14:33N 41°09' W 072°14'9 8.7
2015-Mar-19 13:33N 41°16' W 072°07'5 5.4
2015-Mar-19 12:33N 41°21' W 072°06'9 8.8
2015-Mar-19 11:33N 41°13' W 072°10'5 5.2
2015-Mar-19 10:33N 41°09' W 072°14'0 0.0
2015-Mar-19 00:31N 41°09' W 072°14'9 8.9
2015-Mar-18 23:33N 41°16' W 072°07'6 5.6
2015-Mar-18 22:33N 41°21' W 072°06'9 8.7
2015-Mar-18 21:33N 41°13' W 072°10'5 5.3
2015-Mar-18 20:34N 41°09' W 072°14'8 7.7
2015-Mar-18 19:33N 41°15' W 072°08'6 6.5
2015-Mar-18 18:33N 41°21' W 072°06'9 9.0
2015-Mar-18 17:33N 41°13' W 072°10'5 5.1
2015-Mar-18 16:33N 41°09' W 072°14'8 7.9
2015-Mar-18 15:33N 41°15' W 072°08'6 6.3
2015-Mar-18 14:34N 41°21' W 072°06'10 9.7
2015-Mar-18 13:33N 41°13' W 072°11'4 4.1
2015-Mar-18 12:33N 41°09' W 072°14'8 8.5
2015-Mar-18 11:33N 41°16' W 072°07'6 5.6
2015-Mar-18 10:33N 41°21' W 072°06'0 0.0
2015-Mar-18 00:34N 41°21' W 072°06'9 9.0
2015-Mar-17 23:33N 41°13' W 072°10'5 4.0
2015-Mar-17 22:18N 41°09' W 072°14'912.0
2015-Mar-17 21:33N 41°16' W 072°07'5 5.2
2015-Mar-17 20:34N 41°21' W 072°06'9 8.9
2015-Mar-17 19:33N 41°13' W 072°10'5 5.2
2015-Mar-17 18:33N 41°09' W 072°14'8 8.0
2015-Mar-17 17:34N 41°15' W 072°08'6 6.1
2015-Mar-17 16:33N 41°21' W 072°06'  

Dump ship's entire track history